Flight Track Log - Related Links

Times and Time Zones

All times are in EDT time to prevent confusion due to time zone crossing. See the SWA34 flight status page for this flight to view local times or setup timezone preferences in your user account.

Time Position Orientation Groundspeed Altitude Reporting Facility
EDT Latitude Longitude Course Direction KTS MPH feet Rate Location/Type
Sun 06:36:41 PM 36.2136 -95.9800 282° West 234 269 4,300  Level Kansas City Center
Sun 06:37:15 PM 36.2436 -95.9781 North 250 288 5,700 1,672 Climbing Kansas City Center
Sun 06:37:42 PM 36.2783 -95.9511 32° Northeast 284 327 6,000 484 Climbing Kansas City Center
Sun 06:38:17 PM 36.2944 -95.9122 63° Northeast 280 322 6,200 2,165 Climbing Kansas City Center
Sun 06:39:19 PM 36.3331 -95.8228 62° Northeast 291 335 9,500 2,855 Climbing Kansas City Center
Sun 06:40:21 PM 36.3836 -95.7028 62° Northeast 327 376 12,100 2,516 Climbing Kansas City Center
Sun 06:41:23 PM 36.4297 -95.5944 62° Northeast 347 399 14,700 2,177 Climbing Kansas City Center
Sun 06:42:25 PM 36.4731 -95.4919 62° Northeast 365 420 16,600 2,129 Climbing Kansas City Center
Sun 06:43:27 PM 36.5228 -95.3756 62° Northeast 380 437 19,100 2,419 Climbing Kansas City Center
Sun 06:44:29 PM 36.5817 -95.2336 63° Northeast 384 442 21,600 2,081 Climbing Kansas City Center
Sun 06:45:31 PM 36.6311 -95.1147 63° Northeast 391 450 23,400 1,645 Climbing Kansas City Center
Sun 06:46:33 PM 36.6819 -94.9906 63° Northeast 397 457 25,000 1,452 Climbing Kansas City Center
Sun 06:47:35 PM 36.7356 -94.8614 63° Northeast 412 474 26,400 1,306 Climbing Kansas City Center
Sun 06:48:37 PM 36.7894 -94.7308 63° Northeast 419 482 27,700 1,694 Climbing Kansas City Center
Sun 06:49:39 PM 36.8556 -94.5725 62° Northeast 427 491 29,900 1,839 Climbing Kansas City Center
Sun 06:50:41 PM 36.9067 -94.4453 63° Northeast 416 479 31,500 1,065 Climbing Kansas City Center
Sun 06:51:43 PM 36.9614 -94.3139 62° Northeast 422 486 32,100 1,065 Climbing Kansas City Center
Sun 06:52:45 PM 37.0156 -94.1797 63° Northeast 430 495 33,700 1,403 Climbing Kansas City Center
Sun 06:53:47 PM 37.0669 -94.0528 63° Northeast 411 473 35,000 629 Climbing Kansas City Center
Sun 06:54:49 PM 37.1194 -93.9228 63° Northeast 414 476 35,000  Level Kansas City Center
Sun 06:55:51 PM 37.1794 -93.7742 63° Northeast 421 484 35,000  Level Kansas City Center
Sun 06:56:53 PM 37.2311 -93.6439 63° Northeast 418 481 35,000  Level Kansas City Center
Sun 06:57:55 PM 37.2839 -93.5156 63° Northeast 415 478 35,000  Level Kansas City Center
Sun 06:58:57 PM 37.3358 -93.3867 63° Northeast 412 474 35,000  Level Kansas City Center
Sun 06:59:59 PM 37.4058 -93.2717 53° Northeast 414 476 35,000  Level Kansas City Center
Sun 07:01:01 PM 37.5117 -93.1542 41° Northeast 419 482 35,000  Level Kansas City Center
Sun 07:02:03 PM 37.5967 -93.0581 42° Northeast 415 478 35,000  Level Kansas City Center
Sun 07:03:05 PM 37.6814 -92.9575 43° Northeast 415 478 35,000 -435 Level Kansas City Center
Sun 07:04:07 PM 37.7656 -92.8575 43° Northeast 414 476 34,100 -919 Descending Kansas City Center
Sun 07:05:09 PM 37.8497 -92.7583 43° Northeast 411 473 33,100 -968 Descending Kansas City Center
Sun 07:06:11 PM 37.9336 -92.6400 48° Northeast 417 480 32,100 -919 Descending Kansas City Center
Sun 07:07:13 PM 38.0003 -92.5178 55° Northeast 422 486 31,200 -532 Descending Kansas City Center
Sun 07:08:15 PM 38.0694 -92.3900 55° Northeast 435 501 31,000 -97 Descending Kansas City Center
Sun 07:09:17 PM 38.1392 -92.2586 56° Northeast 446 513 31,000  Level Kansas City Center
Sun 07:10:19 PM 38.2092 -92.1281 56° Northeast 446 513 31,000 -484 Level Kansas City Center
Sun 07:11:21 PM 38.2894 -91.9756 56° Northeast 438 504 30,000 -1,935 Descending Kansas City Center
Sun 07:12:23 PM 38.3575 -91.8467 56° Northeast 436 502 27,000 -1,452 Descending Kansas City Center
Sun 07:13:25 PM 38.4264 -91.7167 56° Northeast 439 505 27,000 -774 Level Kansas City Center
Sun 07:14:27 PM 38.4911 -91.5914 57° Northeast 431 496 25,400 -1,887 Descending Kansas City Center
Sun 07:15:29 PM 38.5542 -91.4706 56° Northeast 416 479 23,100 -2,177 Descending Kansas City Center
Sun 07:16:31 PM 38.6142 -91.3589 55° Northeast 400 460 20,900 -2,129 Descending Kansas City Center
Sun 07:17:33 PM 38.6719 -91.2483 56° Northeast 382 440 18,700 -2,304 Descending Kansas City Center
Sun 07:18:36 PM 38.6964 -91.0964 78° East 379 436 16,100 -2,208 Descending Kansas City Center
Sun 07:19:38 PM 38.7000 -90.9689 88° East 365 420 14,100 -1,887 Descending Kansas City Center
Sun 07:20:40 PM 38.7028 -90.8453 88° East 355 409 12,200 -1,839 Descending Kansas City Center
Sun 07:21:42 PM 38.7058 -90.7261 88° East 341 392 10,300 -1,403 Descending Kansas City Center
Sun 07:22:44 PM 38.7106 -90.6161 87° East 319 367 9,300 -1,065 Descending Kansas City Center
Sun 07:23:46 PM 38.7072 -90.5125 92° East 301 346 8,100 -1,065 Descending Kansas City Center
Sun 07:24:48 PM 38.6606 -90.4164 122° Southeast 277 319 7,100 -919 Descending Kansas City Center
Sun 07:25:50 PM 38.6169 -90.3303 123° Southeast 264 304 6,200 -968 Descending Kansas City Center
Sun 07:26:52 PM 38.5889 -90.2719 122° Southeast 246 283 5,100 -581 Descending Kansas City Center
Sun 07:27:54 PM 38.5564 -90.2114 124° Southeast 227 261 5,000 -48 Descending Kansas City Center
Sun 07:28:56 PM 38.5361 -90.1400 110° East 207 238 5,000 -435 Level Kansas City Center
Sun 07:29:58 PM 38.5786 -90.1058 32° Northeast 191 220 4,100 -726 Descending Kansas City Center
Sun 07:31:00 PM 38.6219 -90.1194 346° North 183 211 3,500 -290 Descending Kansas City Center
Sun 07:32:02 PM 38.6539 -90.1661 311° West 176 203 3,500 -339 Level Kansas City Center
Sun 07:33:04 PM 38.6797 -90.2200 302° West 176 203 2,800 -823 Descending Kansas City Center
Sun 07:34:06 PM 38.7094 -90.2803 302° West 173 199 1,800 -871 Descending Kansas City Center
Sun 07:35:08 PM 38.7303 -90.3208 303° West 155 178 1,000 -532 Descending Kansas City Center
Sun 07:36:10 PM 38.7494 -90.3594 302° West 149 171 700 -290 Descending Kansas City Center

Login

Don't have an account? Register now (free) for customized features, flight alerts, and more!